Attica, NY

1:26 PM EDT on April 25, 2017 (GMT -0400)
Alexander Rd, South Alexander | | Change Station

Elev 932 ft 42.89 °N, 78.26 °W | Updated 5 seconds ago

Rain
Rain
58.8 °F
Feels Like 58.8 °F
N
3.0
Wind Variable Wind from East

Today
High -- | Low -- °F
--% Chance of Precip.
Yesterday
High -- | Low -- °F
Precip. -- in
Pressure 29.96 in
Visibility 10.0 miles
Clouds Few 5000 ft
Scattered Clouds 7000 ft
Overcast 8500 ft
Dew Point 52 °F
Humidity 80%
Rainfall 0.53 in
Snow Depth Not available.
6:15 AM 8:07 PM
Waning Crescent, 1% visible
METAR KBUF 251654Z 12009KT 10SM -RA FEW050 SCT070 OVC085 13/11 A2995 RMK AO2 SLP145 P0001 T01330106
Pressure 29.96 in
Visibility 10.0 miles
Clouds Few 5000 ft
Scattered Clouds 7000 ft
Overcast 8500 ft
Dew Point 52 °F
Humidity 80%
Rainfall 0.53 in
Snow Depth Not available.
6:15 AM 8:07 PM
Waning Crescent, 1% visible
METAR KBUF 251654Z 12009KT 10SM -RA FEW050 SCT070 OVC085 13/11 A2995 RMK AO2 SLP145 P0001 T01330106

Get Severe Weather Alerts

Thanks for signing up!

Be on the lookout for a verification email in your inbox.

You'll start receiving the daily forecast at 8 AM.

×

10-Day Weather Forecast

Almanac

Astronomy

Apr. 25, 2017 Rise Set
Actual Time
Civil Twilight
Nautical Twilight
Astronomical Twilight
Moon
Length of Visible Light
Length of Day
Tomorrow will be .
, % of the Moon is Illuminated

Today's Extremes

State Highs State Lows

Community

WunderPhotos

WunderBlog® & News

Nearby

Air Quality

  Air Quality AQ Index Pollutant
Not available.

Snow Depth

Station Depth Elevation

Earthquake Activity

City Distance Mag. Time & Date
Minimum magnitude displayed is 2.5.

Coastal Water Temperatures

Place Temperature

Stations

Nearby Weather Stations

Station Location Temp. Windchill Dew Point Humidity Wind Precip. Elev Updated Type
                   

Watches & Warnings

There are currently no watches in effect.